Time;durP1;ratioP1;P1;durP2;ratioP2;P2;SDS_P1;SDS_P2;PMS_P1;PMS_P2;Temp;Humidity;BMP_temperature;BMP_pressure;BME280_temperature;BME280_humidity;BME280_pressure;Samples;Min_cycle;Max_cycle;Signal;HPM_P1;HPM_P2
2020/12/24 00:00:31;;;;;;;14.63;7.80;;;7.40;74.70;;;;;;6189629;23;20001;-81
2020/12/24 00:02:56;;;;;;;14.97;8.47;;;7.30;74.80;;;;;;6189271;23;20004;-82
2020/12/24 00:05:22;;;;;;;12.00;8.03;;;7.40;74.90;;;;;;6215603;23;19997;-82
2020/12/24 00:07:48;;;;;;;12.40;7.50;;;7.40;75.00;;;;;;6189202;23;20004;-82
2020/12/24 00:10:14;;;;;;;13.10;8.00;;;7.40;75.10;;;;;;6189379;23;20436;-82
2020/12/24 00:12:40;;;;;;;12.97;8.40;;;7.40;75.20;;;;;;6188356;23;20008;-82
2020/12/24 00:15:06;;;;;;;16.57;9.63;;;7.50;75.10;;;;;;6216250;23;20004;-82
2020/12/24 00:17:32;;;;;;;17.00;9.50;;;7.50;75.00;;;;;;6189135;23;20114;-82
2020/12/24 00:19:58;;;;;;;19.37;10.90;;;7.50;74.90;;;;;;6188901;23;20111;-82
2020/12/24 00:22:24;;;;;;;10.60;7.37;;;7.50;74.90;;;;;;6188325;23;20035;-83
2020/12/24 00:24:49;;;;;;;10.20;6.73;;;7.50;74.90;;;;;;6187984;23;20008;-82
2020/12/24 00:27:15;;;;;;;12.77;7.40;;;7.50;74.70;;;;;;6214419;23;20019;-82
2020/12/24 00:29:41;;;;;;;11.57;7.30;;;7.50;74.70;;;;;;6189183;23;20020;-81
2020/12/24 00:32:07;;;;;;;12.07;8.07;;;7.50;74.60;;;;;;6215701;23;20001;-82
2020/12/24 00:34:33;;;;;;;13.83;9.37;;;7.50;74.70;;;;;;6216004;23;19996;-82
2020/12/24 00:36:59;;;;;;;18.30;9.90;;;7.50;74.80;;;;;;6188935;23;20032;-82
2020/12/24 00:39:25;;;;;;;12.17;7.60;;;7.40;74.70;;;;;;6188027;23;20012;-82
2020/12/24 00:41:51;;;;;;;9.33;5.30;;;7.40;74.80;;;;;;6189196;23;20405;-82
2020/12/24 00:44:18;;;;;;;10.97;5.93;;;7.40;74.80;;;;;;6215203;23;20068;-82
2020/12/24 00:46:44;;;;;;;11.53;7.10;;;7.40;74.80;;;;;;6213883;23;20387;-82
2020/12/24 00:49:09;;;;;;;9.70;6.00;;;7.40;75.00;;;;;;6188555;23;20036;-82
2020/12/24 00:51:35;;;;;;;8.50;5.70;;;7.40;75.10;;;;;;6188055;23;20012;-82
2020/12/24 00:54:01;;;;;;;9.43;6.63;;;7.40;74.80;;;;;;6215963;23;20000;-82
2020/12/24 00:56:26;;;;;;;11.43;7.10;;;7.40;74.80;;;;;;6214474;23;20669;-81
2020/12/24 00:58:52;;;;;;;14.37;8.43;;;7.50;74.70;;;;;;6188981;23;20032;-82
2020/12/24 01:01:18;;;;;;;17.30;11.07;;;7.40;74.70;;;;;;6187435;23;20013;-82
2020/12/24 01:03:43;;;;;;;18.37;11.80;;;7.50;74.80;;;;;;6188274;23;20432;-82
2020/12/24 01:06:09;;;;;;;18.50;12.83;;;7.50;74.80;;;;;;6186174;23;20015;-82
2020/12/24 01:08:35;;;;;;;17.17;11.40;;;7.50;74.80;;;;;;6213763;23;20008;-82
2020/12/24 01:11:00;;;;;;;17.50;9.67;;;7.50;74.70;;;;;;6186584;23;20027;-82
2020/12/24 01:13:26;;;;;;;13.90;7.40;;;7.50;74.80;;;;;;6187558;23;20009;-82
2020/12/24 01:15:52;;;;;;;12.47;8.00;;;7.40;74.50;;;;;;6187781;23;20008;-82
2020/12/24 01:18:17;;;;;;;11.10;7.60;;;7.40;75.20;;;;;;6188207;23;20424;-82
2020/12/24 01:20:44;;;;;;;9.93;6.27;;;7.50;75.10;;;;;;6187549;23;20001;-82
2020/12/24 01:23:10;;;;;;;12.00;6.70;;;7.50;74.80;;;;;;6187674;23;20001;-82
2020/12/24 01:25:36;;;;;;;10.40;6.57;;;7.50;75.00;;;;;;6189061;23;20015;-82
2020/12/24 01:28:01;;;;;;;9.90;5.17;;;7.50;75.00;;;;;;6190665;23;20105;-82
2020/12/24 01:30:27;;;;;;;10.40;6.53;;;7.50;74.80;;;;;;6216220;23;20315;-82
2020/12/24 01:32:53;;;;;;;14.07;9.47;;;7.50;74.70;;;;;;6189309;23;20004;-82
2020/12/24 01:35:20;;;;;;;16.47;10.73;;;7.50;74.70;;;;;;6237815;23;19993;-82
2020/12/24 01:37:46;;;;;;;17.27;10.87;;;7.50;74.60;;;;;;6214188;23;20016;-82
2020/12/24 01:40:12;;;;;;;14.33;10.43;;;7.60;74.60;;;;;;6214525;23;20055;-82
2020/12/24 01:42:37;;;;;;;15.83;9.63;;;7.50;74.60;;;;;;6213559;23;20088;-82
2020/12/24 01:45:04;;;;;;;12.63;7.93;;;7.40;74.50;;;;;;6213715;23;20004;-82
2020/12/24 01:47:29;;;;;;;8.87;6.53;;;7.30;74.40;;;;;;6203215;23;20404;-82
2020/12/24 01:49:55;;;;;;;11.50;5.30;;;7.30;75.10;;;;;;6190455;23;20009;-82
2020/12/24 01:52:38;;;;;;;13.53;6.77;;;7.30;75.10;;;;;;6189967;23;20012;-82
2020/12/24 01:55:06;;;;;;;9.02;5.47;;;7.30;75.00;;;;;;6188717;23;20005;-82
2020/12/24 01:57:32;;;;;;;6.33;4.13;;;7.30;74.90;;;;;;6188938;23;20011;-82
2020/12/24 01:59:57;;;;;;;6.93;4.33;;;7.20;75.00;;;;;;6215016;23;20494;-82
2020/12/24 02:02:23;;;;;;;7.73;4.17;;;7.20;75.20;;;;;;6188270;23;20009;-82
2020/12/24 02:04:49;;;;;;;6.73;4.33;;;7.20;75.30;;;;;;6188627;23;20379;-81
2020/12/24 02:07:16;;;;;;;10.50;5.50;;;7.20;75.10;;;;;;6187951;23;20148;-82
2020/12/24 02:09:48;;;;;;;7.43;4.37;;;7.20;74.90;;;;;;6189801;23;20087;-82
2020/12/24 02:12:14;;;;;;;10.00;5.87;;;7.10;74.90;;;;;;6190985;23;20009;-82
2020/12/24 02:14:40;;;;;;;7.90;5.17;;;7.10;75.00;;;;;;6217949;23;19997;-82
2020/12/24 02:17:06;;;;;;;9.70;5.60;;;7.10;75.10;;;;;;6190785;23;20375;-82
2020/12/24 02:19:32;;;;;;;15.40;9.07;;;7.00;75.10;;;;;;6190779;23;20014;-82
2020/12/24 02:21:58;;;;;;;10.87;6.63;;;7.00;75.20;;;;;;6191195;23;20386;-82
2020/12/24 02:24:23;;;;;;;13.53;6.60;;;7.10;75.20;;;;;;6190070;23;20001;-82
2020/12/24 02:26:49;;;;;;;9.00;5.53;;;7.10;75.20;;;;;;6189117;23;20008;-82
2020/12/24 02:29:15;;;;;;;9.27;5.50;;;7.10;75.20;;;;;;6217254;23;20128;-82
2020/12/24 02:31:40;;;;;;;9.30;5.37;;;7.10;75.10;;;;;;6189216;23;20019;-82
2020/12/24 02:34:06;;;;;;;6.80;4.63;;;7.10;75.20;;;;;;6188968;23;20008;-82
2020/12/24 02:36:32;;;;;;;10.20;4.83;;;7.00;75.10;;;;;;6187820;23;20005;-82
2020/12/24 02:38:58;;;;;;;10.33;6.10;;;7.00;75.10;;;;;;6189266;23;20031;-82
2020/12/24 02:41:24;;;;;;;9.43;6.63;;;7.00;75.20;;;;;;6189982;23;20389;-82
2020/12/24 02:43:50;;;;;;;10.00;6.57;;;7.00;75.20;;;;;;6189157;23;20009;-82
2020/12/24 02:46:16;;;;;;;10.07;5.97;;;7.00;75.40;;;;;;6188436;23;20013;-82
2020/12/24 02:48:43;;;;;;;9.47;5.30;;;7.00;75.70;;;;;;6215984;23;20081;-82
2020/12/24 02:51:09;;;;;;;6.77;4.30;;;7.00;75.70;;;;;;6189337;23;20082;-82
2020/12/24 02:53:35;;;;;;;5.50;3.67;;;7.00;75.50;;;;;;6216140;23;20009;-82
2020/12/24 02:56:01;;;;;;;9.57;3.93;;;7.00;75.30;;;;;;6189724;23;20553;-82
2020/12/24 02:58:27;;;;;;;4.63;3.33;;;6.90;75.20;;;;;;6189635;23;20072;-82
2020/12/24 03:00:52;;;;;;;5.07;3.43;;;6.90;75.20;;;;;;6189381;23;20012;-82
2020/12/24 03:03:20;;;;;;;8.43;4.97;;;6.90;75.10;;;;;;6214913;23;20114;-82
2020/12/24 03:05:46;;;;;;;11.77;5.70;;;6.80;75.10;;;;;;6215887;23;20004;-82
2020/12/24 03:08:12;;;;;;;10.23;5.30;;;6.80;75.20;;;;;;6189608;23;20009;-82
2020/12/24 03:10:38;;;;;;;8.33;5.13;;;6.80;75.20;;;;;;6188461;23;20119;-82
2020/12/24 03:13:04;;;;;;;11.57;7.77;;;6.80;75.20;;;;;;6188969;23;20515;-82
2020/12/24 03:15:29;;;;;;;12.63;8.47;;;6.80;75.00;;;;;;6215154;23;20026;-82
2020/12/24 03:17:55;;;;;;;13.93;9.40;;;6.80;75.10;;;;;;6189583;23;20043;-82
2020/12/24 03:20:21;;;;;;;19.77;11.73;;;6.70;75.00;;;;;;6214089;23;20004;-82
2020/12/24 03:22:46;;;;;;;17.57;11.97;;;6.70;74.80;;;;;;6215384;23;20000;-82
2020/12/24 03:25:12;;;;;;;17.80;11.10;;;6.60;75.00;;;;;;6188491;23;20245;-82
2020/12/24 03:27:38;;;;;;;16.83;10.77;;;6.60;75.20;;;;;;6214940;23;20028;-82
2020/12/24 03:30:05;;;;;;;23.50;11.60;;;6.50;75.20;;;;;;6187981;23;20090;-82
2020/12/24 03:32:30;;;;;;;16.97;11.20;;;6.40;75.30;;;;;;6214691;23;20367;-82
2020/12/24 03:34:56;;;;;;;14.37;9.40;;;6.40;75.50;;;;;;6187364;23;20004;-82
2020/12/24 03:37:22;;;;;;;19.93;11.10;;;6.50;75.80;;;;;;6188820;23;20003;-82
2020/12/24 03:39:48;;;;;;;14.93;10.77;;;6.50;75.80;;;;;;6186750;23;20092;-82
2020/12/24 03:42:13;;;;;;;15.33;9.77;;;6.60;75.80;;;;;;6187854;23;20008;-82
2020/12/24 03:44:39;;;;;;;15.63;10.23;;;6.60;75.50;;;;;;6188371;23;20057;-82
2020/12/24 03:47:05;;;;;;;14.37;9.67;;;6.60;75.50;;;;;;6189269;23;20420;-82
2020/12/24 03:49:31;;;;;;;17.63;9.93;;;6.60;75.40;;;;;;6188333;23;20343;-82
2020/12/24 03:51:57;;;;;;;13.00;8.30;;;6.60;75.30;;;;;;6188593;23;20009;-81
2020/12/24 03:54:23;;;;;;;12.87;8.10;;;6.50;75.60;;;;;;6189130;23;20439;-82
2020/12/24 03:56:48;;;;;;;14.70;8.57;;;6.50;75.80;;;;;;6188944;23;20491;-82
2020/12/24 03:59:14;;;;;;;16.20;10.00;;;6.50;75.80;;;;;;6214635;23;20087;-82
2020/12/24 04:01:39;;;;;;;15.87;10.43;;;6.60;75.70;;;;;;6188881;23;20482;-82
2020/12/24 04:04:05;;;;;;;13.87;9.23;;;6.50;75.50;;;;;;6188866;23;20436;-82
2020/12/24 04:06:31;;;;;;;17.73;10.60;;;6.40;75.80;;;;;;6188861;23;20008;-82
2020/12/24 04:08:56;;;;;;;13.50;9.43;;;6.40;75.80;;;;;;6214166;23;20004;-82
2020/12/24 04:11:22;;;;;;;12.97;8.83;;;6.40;75.60;;;;;;6189121;23;20450;-82
2020/12/24 04:13:48;;;;;;;16.23;9.40;;;6.40;76.00;;;;;;6189207;23;20420;-82
2020/12/24 04:16:16;;;;;;;17.03;8.37;;;6.50;76.10;;;;;;6189514;23;20637;-82
2020/12/24 04:18:42;;;;;;;13.03;8.63;;;6.60;75.90;;;;;;6216011;23;20007;-82
2020/12/24 04:21:08;;;;;;;12.57;9.63;;;6.60;75.60;;;;;;6188364;23;20009;-82
2020/12/24 04:23:33;;;;;;;15.80;10.37;;;6.70;75.60;;;;;;6187980;23;20033;-82
2020/12/24 04:25:59;;;;;;;11.93;8.70;;;6.70;75.80;;;;;;6187459;23;20001;-82
2020/12/24 04:28:25;;;;;;;12.53;8.60;;;6.70;75.40;;;;;;6215445;23;20027;-82
2020/12/24 04:30:51;;;;;;;10.80;7.30;;;6.70;75.50;;;;;;6215930;23;20000;-82
2020/12/24 04:33:17;;;;;;;13.03;8.20;;;6.70;75.40;;;;;;6215165;23;20067;-82
2020/12/24 04:35:42;;;;;;;12.23;8.60;;;6.70;75.60;;;;;;6189618;23;20483;-82
2020/12/24 04:38:09;;;;;;;12.47;8.13;;;6.70;75.40;;;;;;6189557;23;20060;-82
2020/12/24 04:40:35;;;;;;;13.47;7.70;;;6.70;75.30;;;;;;6188581;23;20092;-82
2020/12/24 04:43:03;;;;;;;11.57;7.57;;;6.70;75.40;;;;;;6188419;23;20335;-82
2020/12/24 04:45:32;;;;;;;11.00;7.33;;;6.70;75.30;;;;;;6213880;23;20000;-82
2020/12/24 04:48:00;;;;;;;9.77;7.30;;;6.70;75.30;;;;;;6188391;23;20005;-82
2020/12/24 04:50:27;;;;;;;10.80;7.27;;;6.70;75.50;;;;;;6163613;23;20326;-82
2020/12/24 04:52:57;;;;;;;10.93;7.43;;;6.70;75.60;;;;;;6188923;23;20420;-82
2020/12/24 04:55:23;;;;;;;10.70;7.63;;;6.70;75.40;;;;;;6188236;23;20009;-81
2020/12/24 04:57:49;;;;;;;11.10;6.53;;;6.70;75.50;;;;;;6187888;23;20092;-81
2020/12/24 05:00:16;;;;;;;9.47;6.13;;;6.70;75.50;;;;;;6188450;23;20032;-82
2020/12/24 05:02:42;;;;;;;10.33;7.27;;;6.80;75.60;;;;;;6188958;23;20484;-82
2020/12/24 05:05:08;;;;;;;12.40;8.17;;;6.80;75.50;;;;;;6187919;23;20013;-82
2020/12/24 05:07:33;;;;;;;11.87;8.47;;;6.90;75.40;;;;;;6187743;23;20008;-82
2020/12/24 05:09:59;;;;;;;16.13;9.23;;;6.90;75.30;;;;;;6187480;23;20497;-82
2020/12/24 05:12:32;;;;;;;14.70;9.13;;;6.90;75.40;;;;;;6188535;23;20008;-81
2020/12/24 05:14:58;;;;;;;12.65;8.70;;;6.90;75.30;;;;;;6186122;23;20008;-82
2020/12/24 05:17:25;;;;;;;16.30;8.73;;;7.00;75.30;;;;;;6187577;23;20063;-82
2020/12/24 05:20:20;;;;;;;11.83;8.30;;;6.90;75.20;;;;;;6187327;23;20005;-82
2020/12/24 05:22:46;;;;;;;14.97;8.37;;;7.00;75.40;;;;;;6157832;23;20075;-82
2020/12/24 05:25:19;;;;;;;13.50;8.83;;;6.90;75.30;;;;;;6187806;23;20795;-82
2020/12/24 05:27:57;;;;;;;12.27;7.90;;;7.00;75.30;;;;;;6187227;23;20013;-82
2020/12/24 05:30:27;;;;;;;13.00;8.47;;;6.90;75.30;;;;;;6187554;23;20009;-82
2020/12/24 05:32:52;;;;;;;14.07;8.83;;;7.00;75.50;;;;;;6188855;23;20032;-82
2020/12/24 05:35:23;;;;;;;14.53;8.93;;;7.00;75.50;;;;;;6187435;23;20058;-82
2020/12/24 05:37:50;;;;;;;11.53;8.77;;;7.10;75.40;;;;;;6188762;23;20467;-82
2020/12/24 05:40:33;;;;;;;11.27;7.80;;;7.10;75.20;;;;;;6187806;23;20012;-82
2020/12/24 05:43:02;;;;;;;13.65;8.60;;;7.10;75.30;;;;;;6188249;23;20420;-82
2020/12/24 05:45:30;;;;;;;21.93;12.83;;;7.10;75.30;;;;;;6187747;23;20008;-82
2020/12/24 05:48:10;;;;;;;25.77;14.27;;;7.10;75.20;;;;;;6188534;23;20432;-82
2020/12/24 05:50:37;;;;;;;24.00;14.40;;;7.00;75.90;;;;;;6189223;23;20011;-82
2020/12/24 05:53:23;;;;;;;19.30;11.97;;;7.10;75.30;;;;;;6189210;23;20473;-82
2020/12/24 05:55:49;;;;;;;17.53;9.77;;;7.10;75.40;;;;;;6188158;23;20001;-82
2020/12/24 05:58:16;;;;;;;17.90;10.13;;;7.10;75.30;;;;;;6188305;23;19997;-81
2020/12/24 06:00:44;;;;;;;13.43;9.53;;;7.10;75.30;;;;;;6187585;23;20008;-81
2020/12/24 06:03:13;;;;;;;13.63;10.10;;;7.20;75.30;;;;;;6213024;23;20001;-82
2020/12/24 06:05:56;;;;;;;18.23;9.90;;;7.10;75.20;;;;;;6187677;23;20066;-82
2020/12/24 06:08:32;;;;;;;17.93;9.80;;;7.10;75.30;;;;;;6214060;23;20163;-82
2020/12/24 06:11:01;;;;;;;13.57;9.50;;;7.10;75.30;;;;;;6186223;23;20043;-82
2020/12/24 06:13:35;;;;;;;15.53;10.83;;;7.10;75.50;;;;;;6214244;23;20331;-82
2020/12/24 06:16:10;;;;;;;15.07;9.43;;;7.10;75.40;;;;;;6187304;23;20075;-82
2020/12/24 06:18:40;;;;;;;16.33;10.67;;;7.10;75.50;;;;;;6187428;23;20012;-82
2020/12/24 06:21:12;;;;;;;13.30;9.07;;;7.10;75.40;;;;;;6187576;23;20435;-82
2020/12/24 06:23:38;;;;;;;18.97;9.70;;;7.10;75.60;;;;;;6187973;23;20013;-82
2020/12/24 06:26:08;;;;;;;19.17;12.10;;;7.10;75.50;;;;;;6188237;23;20005;-82
2020/12/24 06:28:36;;;;;;;17.10;11.13;;;7.20;75.40;;;;;;6184656;23;20024;-82
2020/12/24 06:31:03;;;;;;;15.80;10.53;;;7.20;75.50;;;;;;6185317;23;20003;-82
2020/12/24 06:33:30;;;;;;;34.43;14.03;;;7.20;75.30;;;;;;6187562;23;20123;-81
2020/12/24 06:35:56;;;;;;;21.20;13.13;;;7.20;75.30;;;;;;6186459;23;20009;-81
2020/12/24 06:38:58;;;;;;;23.93;13.07;;;7.20;75.30;;;;;;6188208;23;20005;-81
2020/12/24 06:41:34;;;;;;;22.70;13.57;;;7.20;75.20;;;;;;6064993;23;20010;-82
2020/12/24 06:44:00;;;;;;;20.30;13.37;;;7.30;75.40;;;;;;6168634;23;20335;-82
2020/12/24 06:46:26;;;;;;;20.23;13.30;;;7.20;75.20;;;;;;6187185;23;20000;-81
2020/12/24 06:49:27;;;;;;;24.97;15.63;;;7.20;75.30;;;;;;6187061;23;20009;-81
2020/12/24 06:51:53;;;;;;;21.07;14.60;;;7.20;75.30;;;;;;6187667;23;20028;-81
2020/12/24 06:54:27;;;;;;;20.57;12.40;;;7.20;75.40;;;;;;6188152;23;20011;-81
2020/12/24 06:57:26;;;;;;;14.53;9.77;;;7.20;75.30;;;;;;6215663;23;20001;-81
2020/12/24 07:00:23;;;;;;;18.47;9.70;;;7.20;75.50;;;;;;6189629;23;20000;-81
2020/12/24 07:02:51;;;;;;;16.70;11.13;;;7.20;75.50;;;;;;6187511;23;20432;-81
2020/12/24 07:05:45;;;;;;;13.87;10.00;;;7.20;75.50;;;;;;6189200;23;20016;-81
2020/12/24 07:08:33;;;;;;;14.97;11.70;;;7.20;75.50;;;;;;6188514;23;20040;-81
2020/12/24 07:11:00;;;;;;;18.17;10.97;;;7.20;75.70;;;;;;6189132;23;20313;-81
2020/12/24 07:13:41;;;;;;;14.53;10.47;;;7.20;75.70;;;;;;6215930;23;20482;-82
2020/12/24 07:16:09;;;;;;;29.43;17.50;;;7.10;75.60;;;;;;6188662;23;20005;-82
2020/12/24 07:18:36;;;;;;;32.30;18.07;;;7.20;75.70;;;;;;6188995;23;20008;-82
2020/12/24 07:21:05;;;;;;;32.23;18.17;;;7.20;75.90;;;;;;6189373;23;20008;-82
2020/12/24 07:23:35;;;;;;;29.20;17.50;;;7.20;75.80;;;;;;6216846;23;20692;-82
2020/12/24 07:26:06;;;;;;;26.27;15.80;;;7.20;75.70;;;;;;6189619;23;20009;-82
2020/12/24 07:28:33;;;;;;;31.23;16.43;;;7.30;75.80;;;;;;6190379;23;20067;-82
2020/12/24 07:31:04;;;;;;;28.90;18.00;;;7.30;76.00;;;;;;6191191;23;20701;-82
2020/12/24 07:33:30;;;;;;;22.93;13.60;;;7.30;75.90;;;;;;6190586;23;20061;-81
2020/12/24 07:35:56;;;;;;;20.53;12.13;;;7.30;76.30;;;;;;6189886;23;20340;-81
2020/12/24 07:38:24;;;;;;;20.30;11.83;;;7.40;76.20;;;;;;6215795;23;20001;-82
2020/12/24 07:40:50;;;;;;;22.37;13.67;;;7.40;76.30;;;;;;6216248;23;20024;-82
2020/12/24 07:43:16;;;;;;;21.27;13.47;;;7.40;76.20;;;;;;6189140;23;20059;-82
2020/12/24 07:45:43;;;;;;;24.83;14.00;;;7.40;76.40;;;;;;6214047;23;20072;-82
2020/12/24 07:48:18;;;;;;;22.00;13.33;;;7.40;76.30;;;;;;6214459;23;20052;-82
2020/12/24 07:50:45;;;;;;;27.53;13.47;;;7.40;76.50;;;;;;6188810;23;20067;-82
2020/12/24 07:53:21;;;;;;;28.03;14.13;;;7.40;76.60;;;;;;6188931;23;20028;-82
2020/12/24 07:55:46;;;;;;;41.57;24.43;;;7.50;76.70;;;;;;6214805;23;20305;-82
2020/12/24 07:58:14;;;;;;;31.77;17.57;;;7.50;76.70;;;;;;6189079;23;20000;-82
2020/12/24 08:00:46;;;;;;;23.57;13.90;;;7.50;76.70;;;;;;6187948;23;20008;-82
2020/12/24 08:03:18;;;;;;;24.23;15.13;;;7.50;76.80;;;;;;6190787;23;20039;-83
2020/12/24 08:05:45;;;;;;;24.77;15.52;;;7.50;76.80;;;;;;6216474;23;20075;-83
2020/12/24 08:08:12;;;;;;;20.20;13.23;;;7.50;76.80;;;;;;6189678;23;20091;-82
2020/12/24 08:10:42;;;;;;;18.53;12.47;;;7.50;76.90;;;;;;6189527;23;20015;-82
2020/12/24 08:13:11;;;;;;;21.83;12.80;;;7.50;76.90;;;;;;6190591;23;20468;-82
2020/12/24 08:15:45;;;;;;;23.83;15.03;;;7.50;76.80;;;;;;6189551;23;20007;-82
2020/12/24 08:18:15;;;;;;;37.80;21.53;;;7.50;77.00;;;;;;6189634;23;20388;-82
2020/12/24 08:20:56;;;;;;;45.80;25.50;;;7.50;77.00;;;;;;6189279;23;20011;-83
2020/12/24 08:23:41;;;;;;;41.80;25.00;;;7.50;77.10;;;;;;6189609;23;20008;-83
2020/12/24 08:26:08;;;;;;;39.73;25.27;;;7.50;77.00;;;;;;6187642;23;20046;-82
2020/12/24 08:28:37;;;;;;;40.00;26.77;;;7.50;77.00;;;;;;6187619;23;20047;-83
2020/12/24 08:31:08;;;;;;;34.37;22.07;;;7.50;77.10;;;;;;6188594;23;20011;-83
2020/12/24 08:33:33;;;;;;;47.47;25.90;;;7.50;77.20;;;;;;6190630;23;20000;-83
2020/12/24 08:36:21;;;;;;;25.90;16.83;;;7.50;77.30;;;;;;6188050;23;20007;-83
2020/12/24 08:38:48;;;;;;;24.23;15.77;;;7.50;77.20;;;;;;6188390;23;20035;-83
2020/12/24 08:41:21;;;;;;;21.87;14.47;;;7.60;77.30;;;;;;6187549;23;20013;-83
2020/12/24 08:43:56;;;;;;;58.30;28.73;;;7.60;77.50;;;;;;6188522;23;20008;-83
2020/12/24 08:46:24;;;;;;;19.47;11.07;;;7.60;77.60;;;;;;6187748;23;20012;-83
2020/12/24 08:48:50;;;;;;;16.93;10.50;;;7.60;77.50;;;;;;6215923;23;20028;-83
2020/12/24 08:51:20;;;;;;;15.90;10.20;;;7.50;77.20;;;;;;6189539;23;20008;-83
2020/12/24 08:53:46;;;;;;;14.90;9.47;;;7.50;77.60;;;;;;6217424;23;20080;-83
2020/12/24 08:56:18;;;;;;;21.87;10.63;;;7.60;77.60;;;;;;6189310;23;20000;-83
2020/12/24 08:58:56;;;;;;;16.55;9.85;;;7.60;77.50;;;;;;6214223;23;20004;-83
2020/12/24 09:01:22;;;;;;;18.77;9.73;;;7.60;77.30;;;;;;6188494;23;20063;-83
2020/12/24 09:03:48;;;;;;;17.50;9.43;;;7.70;77.10;;;;;;6188579;23;20411;-83
2020/12/24 09:06:18;;;;;;;17.20;8.43;;;7.70;77.20;;;;;;6191264;23;20008;-83
2020/12/24 09:08:51;;;;;;;15.23;10.10;;;7.80;77.00;;;;;;6219946;23;20096;-83
2020/12/24 09:11:30;;;;;;;19.35;10.52;;;7.80;77.10;;;;;;6188936;23;20007;-83
2020/12/24 09:14:05;;;;;;;27.10;13.60;;;7.80;77.00;;;;;;6188003;23;20008;-83
2020/12/24 09:16:34;;;;;;;19.40;11.53;;;7.80;77.30;;;;;;6189507;23;20431;-83
2020/12/24 09:19:08;;;;;;;22.37;12.57;;;7.90;77.40;;;;;;6189318;23;20004;-83
2020/12/24 09:21:35;;;;;;;15.33;10.63;;;7.90;77.30;;;;;;6189030;23;20004;-83
2020/12/24 09:24:09;;;;;;;15.43;9.87;;;7.90;77.10;;;;;;6188221;23;20690;-83
2020/12/24 09:27:08;;;;;;;15.13;10.20;;;7.90;77.30;;;;;;6186837;23;20013;-83
2020/12/24 09:29:34;;;;;;;16.33;10.67;;;8.00;77.30;;;;;;6206800;23;20021;-83
2020/12/24 09:32:01;;;;;;;18.63;11.37;;;8.00;77.20;;;;;;6188052;23;20004;-83
2020/12/24 09:34:28;;;;;;;32.47;22.40;;;8.00;77.80;;;;;;6214220;23;20020;-83
2020/12/24 09:36:54;;;;;;;22.57;15.30;;;8.00;77.40;;;;;;6215542;23;20000;-83
2020/12/24 09:39:20;;;;;;;23.77;15.17;;;8.00;77.40;;;;;;6188153;23;20058;-83
2020/12/24 09:41:48;;;;;;;18.90;11.67;;;8.10;77.40;;;;;;6188840;23;20004;-83
2020/12/24 09:44:15;;;;;;;25.40;16.27;;;8.10;77.40;;;;;;6188558;23;20044;-83
2020/12/24 09:46:41;;;;;;;17.67;12.50;;;8.10;77.30;;;;;;6215667;23;20000;-83
2020/12/24 09:49:07;;;;;;;18.57;14.00;;;8.10;77.30;;;;;;6188346;23;20007;-83
2020/12/24 09:51:35;;;;;;;18.47;14.00;;;8.10;77.40;;;;;;6189305;23;20027;-83
2020/12/24 09:54:01;;;;;;;21.37;14.90;;;8.10;77.40;;;;;;6189203;23;20020;-83
2020/12/24 09:56:27;;;;;;;23.30;11.07;;;8.20;77.70;;;;;;6187337;23;20166;-83
2020/12/24 09:58:53;;;;;;;22.47;12.17;;;8.20;77.80;;;;;;6213740;23;20028;-84
2020/12/24 10:01:19;;;;;;;26.67;12.73;;;8.20;77.60;;;;;;6216364;23;20157;-84
2020/12/24 10:03:45;;;;;;;21.47;10.93;;;8.30;77.80;;;;;;6187305;23;20095;-83
2020/12/24 10:06:12;;;;;;;15.07;9.67;;;8.40;77.70;;;;;;6188303;23;20012;-84
2020/12/24 10:08:37;;;;;;;14.43;9.10;;;8.40;77.60;;;;;;6188403;23;20031;-84
2020/12/24 10:11:03;;;;;;;17.57;9.30;;;8.40;77.50;;;;;;6188436;23;20000;-83
2020/12/24 10:13:29;;;;;;;17.37;9.87;;;8.40;77.40;;;;;;6187386;23;20071;-84
2020/12/24 10:15:55;;;;;;;15.33;9.20;;;8.40;77.60;;;;;;6213897;23;20009;-84
2020/12/24 10:18:21;;;;;;;16.63;9.73;;;8.40;77.40;;;;;;6213921;23;20003;-84
2020/12/24 10:20:47;;;;;;;13.20;8.37;;;8.40;77.30;;;;;;6189459;23;20062;-83
2020/12/24 10:23:13;;;;;;;16.63;9.40;;;8.40;77.30;;;;;;6189349;23;20016;-83
2020/12/24 10:25:39;;;;;;;20.10;8.87;;;8.40;77.50;;;;;;6213010;23;20023;-83
2020/12/24 10:28:06;;;;;;;21.77;10.27;;;8.50;77.60;;;;;;6174972;23;20089;-83
2020/12/24 10:30:32;;;;;;;18.27;9.80;;;8.60;77.50;;;;;;6158760;23;20024;-83
2020/12/24 10:32:58;;;;;;;16.80;8.90;;;8.60;77.20;;;;;;6160732;23;20039;-84
2020/12/24 10:35:23;;;;;;;12.47;8.13;;;8.50;77.20;;;;;;6187445;23;20028;-83
2020/12/24 10:37:49;;;;;;;15.37;8.97;;;8.60;77.40;;;;;;6161482;23;20025;-84
2020/12/24 10:40:15;;;;;;;14.43;8.50;;;8.60;77.40;;;;;;6159894;23;20013;-83
2020/12/24 10:42:45;;;;;;;12.83;7.60;;;8.60;77.30;;;;;;6160494;23;20005;-83
2020/12/24 10:45:10;;;;;;;14.83;10.23;;;8.60;77.30;;;;;;6186499;23;20056;-83
2020/12/24 10:47:36;;;;;;;18.53;11.70;;;8.70;77.30;;;;;;6159690;23;20016;-83
2020/12/24 10:50:02;;;;;;;17.37;9.80;;;8.80;76.70;;;;;;6159770;23;20436;-84
2020/12/24 10:52:28;;;;;;;17.20;10.40;;;8.70;76.90;;;;;;6158899;23;20055;-84
2020/12/24 10:54:53;;;;;;;17.17;10.03;;;8.70;77.30;;;;;;6159520;23;20005;-84
2020/12/24 10:57:19;;;;;;;15.80;9.33;;;8.80;77.10;;;;;;6159478;23;19997;-83
2020/12/24 10:59:45;;;;;;;13.40;8.47;;;8.80;77.10;;;;;;6157908;23;20310;-83
2020/12/24 11:02:11;;;;;;;14.50;9.50;;;8.80;76.90;;;;;;6159698;23;20036;-84
2020/12/24 11:04:36;;;;;;;14.77;9.90;;;8.70;76.80;;;;;;6160079;23;20005;-84
2020/12/24 11:07:02;;;;;;;13.57;9.93;;;8.70;76.90;;;;;;6161609;23;20020;-82
2020/12/24 11:09:28;;;;;;;15.37;9.93;;;8.70;77.00;;;;;;6159796;23;20013;-83
2020/12/24 11:11:54;;;;;;;14.20;9.30;;;8.60;76.90;;;;;;6160253;23;20005;-83
2020/12/24 11:14:20;;;;;;;14.37;9.30;;;8.60;76.90;;;;;;6188019;23;20064;-83
2020/12/24 11:16:45;;;;;;;16.93;9.50;;;8.60;76.90;;;;;;6186771;23;20064;-83
2020/12/24 11:19:11;;;;;;;12.50;9.30;;;8.50;76.80;;;;;;6161977;23;20017;-83
2020/12/24 11:21:37;;;;;;;11.13;8.80;;;8.60;77.10;;;;;;6188450;23;20008;-83
2020/12/24 11:24:05;;;;;;;17.47;11.10;;;8.60;77.10;;;;;;6188604;23;20076;-83
2020/12/24 11:26:32;;;;;;;18.80;11.10;;;8.50;77.00;;;;;;6162464;23;20016;-83
2020/12/24 11:28:58;;;;;;;18.03;13.47;;;8.50;77.00;;;;;;6184358;23;20439;-83
2020/12/24 11:31:28;;;;;;;19.70;13.60;;;8.60;77.30;;;;;;6219171;23;20007;-83
2020/12/24 11:33:55;;;;;;;14.93;11.03;;;8.60;77.20;;;;;;6222154;23;20000;-83
2020/12/24 11:36:21;;;;;;;14.17;10.23;;;8.60;76.90;;;;;;6240478;23;19988;-83
2020/12/24 11:38:47;;;;;;;18.63;13.17;;;8.60;76.90;;;;;;6215712;23;20077;-83
2020/12/24 11:41:15;;;;;;;18.80;12.67;;;8.60;76.90;;;;;;6239462;23;19985;-82
2020/12/24 11:43:42;;;;;;;37.17;21.83;;;8.60;76.90;;;;;;6215244;23;19989;-82
2020/12/24 11:46:09;;;;;;;30.13;20.17;;;8.60;77.00;;;;;;6214708;23;20023;-82
2020/12/24 11:48:35;;;;;;;25.47;15.80;;;8.60;77.00;;;;;;6195840;23;20080;-83
2020/12/24 11:51:01;;;;;;;21.83;14.23;;;8.50;77.10;;;;;;6191894;23;20039;-83
2020/12/24 11:53:26;;;;;;;26.13;16.33;;;8.60;77.10;;;;;;6192218;23;20392;-83
2020/12/24 11:55:52;;;;;;;23.70;16.47;;;8.60;77.30;;;;;;6217555;23;19997;-82
2020/12/24 11:58:18;;;;;;;21.50;14.47;;;8.60;77.30;;;;;;6191210;23;20028;-82
2020/12/24 12:00:44;;;;;;;17.47;12.30;;;8.60;77.30;;;;;;6190998;23;20009;-83
2020/12/24 12:03:09;;;;;;;24.63;12.03;;;8.70;77.30;;;;;;6191647;23;20009;-83
2020/12/24 12:05:35;;;;;;;26.07;14.87;;;8.60;77.00;;;;;;6188738;23;20012;-83
2020/12/24 12:08:01;;;;;;;24.67;13.07;;;8.50;77.20;;;;;;6189942;23;20012;-83
2020/12/24 12:10:26;;;;;;;28.47;14.87;;;8.40;77.50;;;;;;6189550;23;20009;-83
2020/12/24 12:12:52;;;;;;;24.47;13.77;;;8.40;77.50;;;;;;6190972;23;20023;-83
2020/12/24 12:15:18;;;;;;;21.93;12.93;;;8.40;77.80;;;;;;6216038;23;20028;-83
2020/12/24 12:17:44;;;;;;;19.87;12.20;;;8.40;78.00;;;;;;6191167;23;20001;-82
2020/12/24 12:20:09;;;;;;;17.43;10.60;;;8.40;78.00;;;;;;6190125;23;20100;-82
2020/12/24 12:22:35;;;;;;;15.73;10.83;;;8.40;77.90;;;;;;6189772;23;20059;-82
2020/12/24 12:25:00;;;;;;;13.97;9.43;;;8.40;77.90;;;;;;6215491;23;20363;-82
2020/12/24 12:27:26;;;;;;;18.27;10.33;;;8.40;77.80;;;;;;6211637;23;20462;-83
2020/12/24 12:29:52;;;;;;;17.90;11.90;;;8.50;77.80;;;;;;6188744;23;20039;-83
2020/12/24 12:32:18;;;;;;;25.30;15.13;;;8.50;77.70;;;;;;6187417;23;20005;-83
2020/12/24 12:34:46;;;;;;;21.50;12.77;;;8.50;77.60;;;;;;6188788;23;20126;-82
2020/12/24 12:37:13;;;;;;;17.67;11.57;;;8.50;77.80;;;;;;6188330;23;20084;-82
2020/12/24 12:39:39;;;;;;;16.17;11.90;;;8.50;77.80;;;;;;6189419;23;20011;-82
2020/12/24 12:42:05;;;;;;;18.03;12.23;;;8.50;77.70;;;;;;6187305;23;20004;-82
2020/12/24 12:44:30;;;;;;;14.63;11.23;;;8.50;77.60;;;;;;6188141;23;20051;-82
2020/12/24 12:46:57;;;;;;;18.40;14.27;;;8.50;77.70;;;;;;6188119;23;20332;-82